Airfield :
LOGIN :

Register | Disclaimer

   EN    FR    IT 

 










Legend :    VFR   Marginal VFR   IFR   Intensive IFR   Very Intensive IFR
Visi :
Ceiling :
>= 8 km
>= 3000ft
5 to 8 km
1000 to 3000 ft
1500m to 5 km
500 to 1000 ft
800 to 1500m
200 to 500 ft
< 800m
< 200 ft
Symbols :   Thunderstorms  Fog  Heavy snow  Heavy precipitations  Wind > 20 kt
SIGMETs :     Misc.  Thunderstorms  Icing  Turbulence  Mountain Waves  Volcanic Ashes







- Airport Elevation : 597 ft
- IATA code : PDV


LBPD - Plovdiv

CURRENT METAR :
  • 252130Z AUTO 25005KT 9999 NCD 08/00 Q1009

EXPIRED METARs :
  • 252100Z AUTO 00000KT 9999 NCD 07/M01 Q1009
  • 252030Z AUTO 30004KT 260V340 9999 NCD 07/00 Q1008
  • 252000Z AUTO 31003KT 230V360 9999 NCD 08/M00 Q1008 NOSIG
  • 251930Z AUTO 36003KT 320V040 9999 NCD 10/01 Q1008 NOSIG
  • 251900Z AUTO 35003KT 310V030 9999 NCD 09/00 Q1008 NOSIG

TAF TAF LBPD
Valid from the 25 at 18:00 until the 26 at 18:00 UTC


251700Z 2518/2618 VRB04KT CAVOK
BECMG 2604/2606 27010KT
BECMG 2611/2613 SCT025 OVC040
PROB40
TEMPO 2614/2618 5000 SHRA SCT033CB
No reported NOTAMs for that airfield.



MET'MAP, your aeronautical weather chart ! - Copyright ORBIFLY December 2007 - Disclaimer

ORBIFLY MET'MAP TEAM :

Programming & Development : Alexandra Zaïnal
Concept & Development : Baudouin d'Aumeries
Co-Development & Prog : Marc-Olivier Méhu
Technical & hardware support : Manuel Goepfert

Contact : metmap@orbifly.com




SOURCES & CREDITS :

   NOAA